createdAt,value
2023-04-08T00:01:22.687Z,98531.81
2023-04-08T00:06:27.364Z,98517.94
2023-04-08T00:11:32.848Z,98523.47
2023-04-08T00:16:36.941Z,98521.16
2023-04-08T00:21:40.864Z,98525.41
2023-04-08T00:26:46.546Z,98526.09
2023-04-08T00:31:51.495Z,98529.59
2023-04-08T00:36:56.375Z,98531.25
2023-04-08T00:42:02.179Z,98529.59
2023-04-08T00:47:06.439Z,98550.00
2023-04-08T00:52:11.195Z,98541.81
2023-04-08T00:57:17.461Z,98560.00
2023-04-08T01:02:28.246Z,98560.00
2023-04-08T01:07:34.922Z,98571.38
2023-04-08T01:12:44.042Z,98568.69
2023-04-08T01:17:49.380Z,98562.13
2023-04-08T01:23:04.038Z,98574.78
2023-04-08T01:28:12.489Z,98560.25
2023-04-08T01:33:17.996Z,98567.63
2023-04-08T01:38:24.481Z,98566.81
2023-04-08T01:43:32.427Z,98565.88
2023-04-08T01:48:37.059Z,98565.28
2023-04-08T01:53:41.277Z,98573.38
2023-04-08T01:58:50.208Z,98583.09
2023-04-08T02:03:57.824Z,98578.88
2023-04-08T02:09:02.440Z,98575.84
2023-04-08T02:14:07.750Z,98573.84
2023-04-08T02:19:16.933Z,98580.03
2023-04-08T02:24:21.817Z,98568.22
2023-04-08T02:29:28.152Z,98581.34
2023-04-08T02:34:32.858Z,98581.94
2023-04-08T02:39:38.633Z,98578.41
2023-04-08T02:44:44.086Z,98577.97
2023-04-08T02:49:48.318Z,98582.97
2023-04-08T02:54:52.296Z,98593.06
2023-04-08T02:59:57.525Z,98595.06
2023-04-08T03:05:01.658Z,98601.94
2023-04-08T03:10:06.655Z,98605.25
2023-04-08T03:15:12.810Z,98601.34
2023-04-08T03:20:16.941Z,98603.13
2023-04-08T03:25:20.912Z,98604.06
2023-04-08T03:30:26.685Z,98611.66
2023-04-08T03:35:31.213Z,98620.56
2023-04-08T03:40:35.477Z,98621.16
2023-04-08T03:45:40.939Z,98623.50
2023-04-08T03:50:44.996Z,98625.38
2023-04-08T03:55:50.558Z,98630.66
2023-04-08T04:00:56.009Z,98635.69
2023-04-08T04:05:59.880Z,98637.91
2023-04-08T04:11:04.035Z,98638.25
2023-04-08T04:16:09.588Z,98641.56
2023-04-08T04:21:13.546Z,98647.31
2023-04-08T04:26:17.880Z,98651.38
2023-04-08T04:31:26.577Z,98650.00
2023-04-08T04:36:31.703Z,98663.44
2023-04-08T04:41:40.458Z,98661.56
2023-04-08T04:46:46.002Z,98673.88
2023-04-08T04:51:50.315Z,98687.13
2023-04-08T04:56:54.527Z,98687.22
2023-04-08T05:02:00.080Z,98688.41
2023-04-08T05:07:04.057Z,98690.16
2023-04-08T05:12:08.005Z,98695.31
2023-04-08T05:17:13.707Z,98699.31
2023-04-08T05:22:18.015Z,98699.56
2023-04-08T05:27:21.896Z,98718.28
2023-04-08T05:32:27.414Z,98722.53
2023-04-08T05:37:31.465Z,98717.97
2023-04-08T05:42:36.036Z,98725.81
2023-04-08T05:47:41.566Z,98729.91
2023-04-08T05:52:46.238Z,98729.22
2023-04-08T05:57:50.425Z,98737.78
2023-04-08T06:02:55.830Z,98746.56
2023-04-08T06:07:59.918Z,98749.63
2023-04-08T06:13:03.980Z,98762.75
2023-04-08T06:18:09.644Z,98772.25
2023-04-08T06:23:14.413Z,98776.59
2023-04-08T06:28:18.816Z,98780.47
2023-04-08T06:33:24.300Z,98788.06
2023-04-08T06:38:28.561Z,98782.06
2023-04-08T06:43:33.387Z,98796.34
2023-04-08T06:48:39.213Z,98791.22
2023-04-08T06:53:43.365Z,98793.63
2023-04-08T06:58:47.346Z,98794.13
2023-04-08T07:03:52.884Z,98790.22
2023-04-08T07:08:57.333Z,98792.34
2023-04-08T07:14:01.431Z,98798.94
2023-04-08T07:19:06.835Z,98809.09
2023-04-08T07:24:11.225Z,98814.28
2023-04-08T07:29:15.279Z,98816.97
2023-04-08T07:34:20.614Z,98821.78
2023-04-08T07:39:24.536Z,98822.38
2023-04-08T07:44:29.215Z,98836.16
2023-04-08T07:49:34.851Z,98833.56
2023-04-08T07:54:38.929Z,98842.59
2023-04-08T07:59:42.883Z,98841.06
2023-04-08T08:04:48.646Z,98843.47
2023-04-08T08:09:52.801Z,98852.25
2023-04-08T08:14:59.106Z,98855.47
2023-04-08T08:20:05.722Z,98845.91
2023-04-08T08:25:10.404Z,98859.38
2023-04-08T08:30:14.837Z,98869.19
2023-04-08T08:35:20.442Z,98865.31
2023-04-08T08:40:24.453Z,98861.34
2023-04-08T08:45:28.885Z,98865.44
2023-04-08T08:50:34.397Z,98862.69
2023-04-08T08:56:13.089Z,98867.47
2023-04-08T09:01:03.582Z,98877.97
2023-04-08T09:06:09.532Z,98880.38
2023-04-08T09:11:15.962Z,98874.84
2023-04-08T09:16:23.295Z,98889.56
2023-04-08T09:21:28.697Z,98901.91
2023-04-08T09:26:35.709Z,98901.75
2023-04-08T09:31:41.925Z,98899.00
2023-04-08T09:36:48.584Z,98910.88
2023-04-08T09:41:53.458Z,98908.66
2023-04-08T09:47:02.750Z,98913.44
2023-04-08T09:52:09.516Z,98906.50
2023-04-08T09:57:17.400Z,98917.38
2023-04-08T10:02:30.760Z,98919.03
2023-04-08T10:07:37.745Z,98920.63
2023-04-08T10:12:42.408Z,98920.19
2023-04-08T10:17:46.799Z,98910.28
2023-04-08T10:22:52.666Z,98912.22
2023-04-08T10:27:56.692Z,98914.97
2023-04-08T10:33:01.533Z,98915.38
2023-04-08T10:38:08.087Z,98917.31
2023-04-08T10:43:13.671Z,98909.44
2023-04-08T10:48:20.042Z,98906.47
2023-04-08T10:53:30.342Z,98907.03
2023-04-08T10:58:34.847Z,98909.94
2023-04-08T11:03:39.193Z,98906.50
2023-04-08T11:08:45.046Z,98903.53
2023-04-08T11:13:53.502Z,98918.75
2023-04-08T11:18:59.218Z,98913.41
2023-04-08T11:24:07.909Z,98920.84
2023-04-08T11:29:14.973Z,98914.06
2023-04-08T11:34:24.694Z,98923.56
2023-04-08T11:39:30.888Z,98920.81
2023-04-08T11:44:35.355Z,98916.63
2023-04-08T11:49:46.623Z,98924.81
2023-04-08T11:54:52.108Z,98923.34
2023-04-08T11:59:55.951Z,98919.34
2023-04-08T12:04:59.835Z,98911.00
2023-04-08T12:10:05.946Z,98911.47
2023-04-08T12:15:11.168Z,98907.91
2023-04-08T12:20:17.371Z,98916.72
2023-04-08T12:25:22.928Z,98918.28
2023-04-08T12:30:27.024Z,98907.97
2023-04-08T12:35:31.178Z,98906.72
2023-04-08T12:40:36.577Z,98910.66
2023-04-08T12:45:40.833Z,98910.41
2023-04-08T12:50:45.299Z,98906.91
2023-04-08T12:55:51.473Z,98898.09
2023-04-08T13:00:55.417Z,98895.94
2023-04-08T13:05:59.994Z,98906.00
2023-04-08T13:11:05.811Z,98900.91
2023-04-08T13:16:09.955Z,98902.72
2023-04-08T13:21:14.132Z,98900.84
2023-04-08T13:26:19.652Z,98894.50
2023-04-08T13:31:23.807Z,98887.78
2023-04-08T13:36:28.682Z,98888.50
2023-04-08T13:41:35.026Z,98883.41
2023-04-08T13:46:39.635Z,98891.53
2023-04-08T13:51:43.836Z,98888.84
2023-04-08T13:56:50.031Z,98887.06
2023-04-08T14:01:55.584Z,98889.59
2023-04-08T14:06:59.505Z,98890.56
2023-04-08T14:12:05.065Z,98887.22
2023-04-08T14:17:09.221Z,98881.22
2023-04-08T14:22:14.606Z,98878.97
2023-04-08T14:27:20.117Z,98870.50
2023-04-08T14:32:24.362Z,98880.19
2023-04-08T14:37:28.465Z,98882.16
2023-04-08T14:42:33.950Z,98875.09
2023-04-08T14:47:40.785Z,98880.72
2023-04-08T14:52:48.477Z,98874.38
2023-04-08T14:57:53.693Z,98876.25
2023-04-08T15:02:57.686Z,98876.03
2023-04-08T15:08:02.526Z,98881.88
2023-04-08T15:13:07.984Z,98883.13
2023-04-08T15:18:12.151Z,98898.50
2023-04-08T15:23:16.064Z,98898.56
2023-04-08T15:28:21.420Z,98913.56
2023-04-08T15:33:26.090Z,98910.03
2023-04-08T15:38:30.425Z,98899.50
2023-04-08T15:43:37.094Z,98904.34
2023-04-08T15:48:42.730Z,98904.69
2023-04-08T15:53:47.357Z,98910.34
2023-04-08T15:58:53.558Z,98899.75
2023-04-08T16:03:57.664Z,98911.78
2023-04-08T16:09:02.570Z,98917.97
2023-04-08T16:14:08.064Z,98921.28
2023-04-08T16:19:12.428Z,98921.69
2023-04-08T16:24:16.570Z,98923.25
2023-04-08T16:29:22.778Z,98918.06
2023-04-08T16:34:26.818Z,98925.31
2023-04-08T16:39:31.126Z,98924.75
2023-04-08T16:44:36.888Z,98914.78
2023-04-08T16:49:40.932Z,98924.25
2023-04-08T16:54:46.156Z,98915.09
2023-04-08T16:59:51.565Z,98921.09
2023-04-08T17:04:55.480Z,98920.03
2023-04-08T17:09:59.644Z,98924.97
2023-04-08T17:15:05.586Z,98923.47
2023-04-08T17:20:10.530Z,98940.03
2023-04-08T17:25:14.751Z,98938.94
2023-04-08T17:30:20.285Z,98934.81
2023-04-08T17:35:24.273Z,98940.41
2023-04-08T17:40:28.534Z,98942.47
2023-04-08T17:45:33.762Z,98947.38
2023-04-08T17:50:38.176Z,98952.34
2023-04-08T17:55:42.284Z,98953.84
2023-04-08T18:00:48.867Z,98951.91
2023-04-08T18:05:55.198Z,98961.22
2023-04-08T18:10:59.128Z,98974.88
2023-04-08T18:16:04.630Z,98989.34
2023-04-08T18:21:09.309Z,98984.28
2023-04-08T18:26:13.453Z,98977.19
2023-04-08T18:31:19.246Z,98980.72
2023-04-08T18:36:23.469Z,98990.84
2023-04-08T18:41:28.007Z,98982.63
2023-04-08T18:46:33.959Z,98986.31
2023-04-08T18:51:39.568Z,98995.28
2023-04-08T18:56:45.654Z,98998.16
2023-04-08T19:01:51.164Z,98980.69
2023-04-08T19:06:55.168Z,98988.59
2023-04-08T19:11:59.302Z,98984.06
2023-04-08T19:17:04.559Z,98980.25
2023-04-08T19:22:08.456Z,98988.84
2023-04-08T19:27:14.079Z,98978.03
2023-04-08T19:32:20.076Z,98978.47
2023-04-08T19:37:24.392Z,98978.47
2023-04-08T19:42:28.336Z,98989.22
2023-04-08T19:47:33.794Z,98987.19
2023-04-08T19:52:38.017Z,98981.16
2023-04-08T19:57:42.369Z,98984.31
2023-04-08T20:02:48.055Z,98983.66
2023-04-08T20:07:52.164Z,98983.31
2023-04-08T20:12:56.415Z,98975.13
2023-04-08T20:18:01.715Z,98979.50
2023-04-08T20:23:05.930Z,98980.41
2023-04-08T20:28:09.970Z,98976.66
2023-04-08T20:33:15.427Z,98978.28
2023-04-08T20:38:19.675Z,98977.09
2023-04-08T20:43:23.806Z,98974.22
2023-04-08T20:48:29.685Z,98974.88
2023-04-08T20:53:34.512Z,98974.88
2023-04-08T20:58:39.003Z,98967.22
2023-04-08T21:03:44.505Z,98974.25
2023-04-08T21:08:49.153Z,98976.03
2023-04-08T21:13:53.251Z,98975.47
2023-04-08T21:19:01.365Z,98973.25
2023-04-08T21:24:07.082Z,98983.78
2023-04-08T21:29:12.189Z,98971.13
2023-04-08T21:34:17.660Z,98977.59
2023-04-08T21:39:22.538Z,98982.31
2023-04-08T21:44:26.792Z,98985.63
2023-04-08T21:49:32.301Z,98985.09
2023-04-08T21:54:36.233Z,98985.47
2023-04-08T21:59:40.893Z,98973.06
2023-04-08T22:04:46.437Z,98982.16
2023-04-08T22:09:50.541Z,98978.72
2023-04-08T22:14:55.048Z,98981.00
2023-04-08T22:20:00.493Z,98988.69
2023-04-08T22:25:04.770Z,98985.56
2023-04-08T22:30:09.835Z,98986.97
2023-04-08T22:35:15.409Z,98984.50
2023-04-08T22:40:19.548Z,98983.84
2023-04-08T22:45:23.742Z,98994.91
2023-04-08T22:50:29.236Z,98983.72
2023-04-08T22:55:33.239Z,98984.41
2023-04-08T23:00:37.273Z,98978.63
2023-04-08T23:05:42.608Z,98999.38
2023-04-08T23:10:46.731Z,98995.44
2023-04-08T23:15:50.861Z,98980.75
2023-04-08T23:20:57.187Z,98977.66
2023-04-08T23:26:01.213Z,98989.41
2023-04-08T23:31:05.807Z,98993.25
2023-04-08T23:36:11.822Z,98982.38
2023-04-08T23:41:15.965Z,98994.88
2023-04-08T23:46:20.473Z,98994.22
2023-04-08T23:51:26.163Z,98995.72
2023-04-08T23:56:30.283Z,98994.41
